createdAt,value
2023-01-30T00:00:21.619Z,84.06
2023-01-30T00:01:21.619Z,84.27
2023-01-30T00:02:21.679Z,84.37
2023-01-30T00:03:21.616Z,83.71
2023-01-30T00:04:21.669Z,83.95
2023-01-30T00:05:21.740Z,84.06
2023-01-30T00:06:21.690Z,84.88
2023-01-30T00:07:21.720Z,84.51
2023-01-30T00:08:21.743Z,85.86
2023-01-30T00:09:21.748Z,85.44
2023-01-30T00:10:21.771Z,85.44
2023-01-30T00:11:21.835Z,85.16
2023-01-30T00:12:21.846Z,84.47
2023-01-30T00:13:21.863Z,85.03
2023-01-30T00:14:21.917Z,85.44
2023-01-30T00:15:21.906Z,85.50
2023-01-30T00:16:22.005Z,85.19
2023-01-30T00:17:21.970Z,84.58
2023-01-30T00:18:21.967Z,84.58
2023-01-30T00:19:22.058Z,85.55
2023-01-30T00:20:22.029Z,86.17
2023-01-30T00:21:22.091Z,86.37
2023-01-30T00:22:22.125Z,85.92
2023-01-30T00:23:22.140Z,85.26
2023-01-30T00:24:22.327Z,84.64
2023-01-30T00:25:22.311Z,84.78
2023-01-30T00:26:22.258Z,85.09
2023-01-30T00:27:22.279Z,85.30
2023-01-30T00:28:22.339Z,84.84
2023-01-30T00:29:22.324Z,84.64
2023-01-30T00:30:22.426Z,85.09
2023-01-30T00:31:22.384Z,85.30
2023-01-30T00:32:22.408Z,85.61
2023-01-30T00:33:22.434Z,85.09
2023-01-30T00:34:22.436Z,85.09
2023-01-30T00:35:22.473Z,85.75
2023-01-30T00:36:22.543Z,86.17
2023-01-30T00:37:22.573Z,86.13
2023-01-30T00:38:22.560Z,86.44
2023-01-30T00:39:22.564Z,86.23
2023-01-30T00:40:22.640Z,86.02
2023-01-30T00:41:22.698Z,85.82
2023-01-30T00:42:22.737Z,86.13
2023-01-30T00:43:22.803Z,86.65
2023-01-30T00:44:22.812Z,86.79
2023-01-30T00:45:22.880Z,86.54
2023-01-30T00:46:22.890Z,86.29
2023-01-30T00:47:22.902Z,85.71
2023-01-30T00:48:22.909Z,86.13
2023-01-30T00:49:22.923Z,86.02
2023-01-30T00:50:22.965Z,86.40
2023-01-30T00:51:23.033Z,85.68
2023-01-30T00:52:23.044Z,85.57
2023-01-30T00:53:23.115Z,85.88
2023-01-30T00:54:23.137Z,86.44
2023-01-30T00:55:23.122Z,86.23
2023-01-30T00:56:23.170Z,86.33
2023-01-30T00:57:23.167Z,86.29
2023-01-30T00:58:23.214Z,85.68
2023-01-30T00:59:23.296Z,85.68
2023-01-30T01:00:23.322Z,85.99
2023-01-30T01:01:23.298Z,85.88
2023-01-30T01:02:23.340Z,85.36
2023-01-30T01:03:23.519Z,86.44
2023-01-30T01:04:23.444Z,86.60
2023-01-30T01:05:23.438Z,85.84
2023-01-30T01:06:23.446Z,85.63
2023-01-30T01:07:23.429Z,85.74
2023-01-30T01:08:23.447Z,85.99
2023-01-30T01:09:23.467Z,86.65
2023-01-30T01:10:23.448Z,86.71
2023-01-30T01:11:23.501Z,86.91
2023-01-30T01:12:23.553Z,86.81
2023-01-30T01:13:23.596Z,87.02
2023-01-30T01:14:23.577Z,86.57
2023-01-30T01:15:23.594Z,85.88
2023-01-30T01:16:23.641Z,86.81
2023-01-30T01:17:23.627Z,87.33
2023-01-30T01:18:23.607Z,86.75
2023-01-30T01:19:23.649Z,88.13
2023-01-30T01:20:23.696Z,88.16
2023-01-30T01:21:23.757Z,87.43
2023-01-30T01:22:23.730Z,87.33
2023-01-30T01:23:23.791Z,87.33
2023-01-30T01:24:23.854Z,87.64
2023-01-30T01:25:23.829Z,87.74
2023-01-30T01:26:23.949Z,87.74
2023-01-30T01:27:23.930Z,88.36
2023-01-30T01:28:23.963Z,88.30
2023-01-30T01:29:24.022Z,88.57
2023-01-30T01:30:24.035Z,88.67
2023-01-30T01:31:24.277Z,88.46
2023-01-30T01:32:24.110Z,88.16
2023-01-30T01:33:24.163Z,87.85
2023-01-30T01:34:24.217Z,88.26
2023-01-30T01:35:24.231Z,88.51
2023-01-30T01:36:51.508Z,88.46
2023-01-30T01:37:24.345Z,88.36
2023-01-30T01:38:24.336Z,88.88
2023-01-30T01:39:24.358Z,89.44
2023-01-30T01:40:24.377Z,89.54
2023-01-30T01:41:24.435Z,89.44
2023-01-30T01:42:24.485Z,90.16
2023-01-30T01:43:24.519Z,89.71
2023-01-30T01:44:24.572Z,89.61
2023-01-30T01:45:24.625Z,89.50
2023-01-30T01:46:24.643Z,89.09
2023-01-30T01:47:24.674Z,89.09
2023-01-30T01:48:24.686Z,89.34
2023-01-30T01:49:24.713Z,90.12
2023-01-30T01:50:24.764Z,89.61
2023-01-30T01:51:24.773Z,89.50
2023-01-30T01:52:24.829Z,89.29
2023-01-30T01:53:24.904Z,89.40
2023-01-30T01:54:24.865Z,89.54
2023-01-30T01:55:24.904Z,89.75
2023-01-30T01:56:24.944Z,89.86
2023-01-30T01:57:24.990Z,90.16
2023-01-30T01:58:25.025Z,90.16
2023-01-30T01:59:25.009Z,89.92
2023-01-30T02:00:25.235Z,89.71
2023-01-30T02:01:25.075Z,89.61
2023-01-30T02:02:25.103Z,89.86
2023-01-30T02:03:25.150Z,90.26
2023-01-30T02:04:25.126Z,90.02
2023-01-30T02:05:25.133Z,89.40
2023-01-30T02:06:25.153Z,88.94
2023-01-30T02:07:25.166Z,89.44
2023-01-30T02:08:25.157Z,90.02
2023-01-30T02:09:25.156Z,89.56
2023-01-30T02:10:25.157Z,89.40
2023-01-30T02:11:25.199Z,89.50
2023-01-30T02:12:25.237Z,90.12
2023-01-30T02:13:25.257Z,90.12
2023-01-30T02:14:25.300Z,90.23
2023-01-30T02:15:25.357Z,89.67
2023-01-30T02:16:25.496Z,89.56
2023-01-30T02:17:25.493Z,89.61
2023-01-30T02:18:25.475Z,89.87
2023-01-30T02:19:25.561Z,90.02
2023-01-30T02:20:25.571Z,90.95
2023-01-30T02:21:25.572Z,90.84
2023-01-30T02:22:25.609Z,90.84
2023-01-30T02:23:25.648Z,90.60
2023-01-30T02:24:25.680Z,90.33
2023-01-30T02:25:25.785Z,90.70
2023-01-30T02:26:25.798Z,90.33
2023-01-30T02:27:25.759Z,91.72
2023-01-30T02:28:25.862Z,91.93
2023-01-30T02:29:25.902Z,91.47
2023-01-30T02:30:26.078Z,91.36
2023-01-30T02:31:26.012Z,91.36
2023-01-30T02:32:25.869Z,91.16
2023-01-30T02:33:25.863Z,91.57
2023-01-30T02:34:25.902Z,91.36
2023-01-30T02:35:25.948Z,90.91
2023-01-30T02:36:25.974Z,90.60
2023-01-30T02:37:25.981Z,91.11
2023-01-30T02:38:26.032Z,90.91
2023-01-30T02:39:26.072Z,91.01
2023-01-30T02:40:26.112Z,91.63
2023-01-30T02:41:26.104Z,91.84
2023-01-30T02:42:26.141Z,91.28
2023-01-30T02:43:26.144Z,90.80
2023-01-30T02:44:26.183Z,91.32
2023-01-30T02:45:26.173Z,91.63
2023-01-30T02:46:26.888Z,91.63
2023-01-30T02:47:26.620Z,91.84
2023-01-30T02:48:26.295Z,91.84
2023-01-30T02:49:26.363Z,92.46
2023-01-30T02:50:26.364Z,92.36
2023-01-30T02:51:27.065Z,92.36
2023-01-30T02:52:26.394Z,92.46
2023-01-30T02:53:26.575Z,92.46
2023-01-30T02:54:27.275Z,92.67
2023-01-30T02:55:26.507Z,92.42
2023-01-30T02:56:26.555Z,92.32
2023-01-30T02:57:26.633Z,91.90
2023-01-30T02:58:26.885Z,91.69
2023-01-30T02:59:27.595Z,91.80
2023-01-30T03:00:26.767Z,92.21
2023-01-30T03:01:27.741Z,92.11
2023-01-30T03:02:26.878Z,91.86
2023-01-30T03:03:26.877Z,90.83
2023-01-30T03:04:26.860Z,91.38
2023-01-30T03:05:26.858Z,92.00
2023-01-30T03:06:26.907Z,92.21
2023-01-30T03:07:26.961Z,92.42
2023-01-30T03:08:26.990Z,92.58
2023-01-30T03:09:27.040Z,91.75
2023-01-30T03:10:27.098Z,91.75
2023-01-30T03:11:27.118Z,91.69
2023-01-30T03:12:27.157Z,92.58
2023-01-30T03:13:27.227Z,91.20
2023-01-30T03:14:27.250Z,91.24
2023-01-30T03:15:27.290Z,92.32
2023-01-30T03:16:27.385Z,92.38
2023-01-30T03:17:27.363Z,92.27
2023-01-30T03:18:27.401Z,92.38
2023-01-30T03:19:27.409Z,92.17
2023-01-30T03:20:27.479Z,92.63
2023-01-30T03:21:27.470Z,92.68
2023-01-30T03:22:27.531Z,92.27
2023-01-30T03:23:27.600Z,92.79
2023-01-30T03:24:27.661Z,93.14
2023-01-30T03:25:27.682Z,93.55
2023-01-30T03:26:27.784Z,93.20
2023-01-30T03:27:27.774Z,92.79
2023-01-30T03:28:27.775Z,92.33
2023-01-30T03:29:27.795Z,92.13
2023-01-30T03:30:27.836Z,91.50
2023-01-30T03:31:27.933Z,91.75
2023-01-30T03:32:27.890Z,92.83
2023-01-30T03:33:27.890Z,93.41
2023-01-30T03:34:27.958Z,92.74
2023-01-30T03:35:27.949Z,91.82
2023-01-30T03:36:27.993Z,91.82
2023-01-30T03:37:28.046Z,91.92
2023-01-30T03:38:27.993Z,92.13
2023-01-30T03:39:28.057Z,92.02
2023-01-30T03:40:28.128Z,92.23
2023-01-30T03:41:28.103Z,92.13
2023-01-30T03:42:28.124Z,91.98
2023-01-30T03:43:28.142Z,91.46
2023-01-30T03:44:28.199Z,91.82
2023-01-30T03:45:28.292Z,92.02
2023-01-30T03:46:28.321Z,92.48
2023-01-30T03:47:28.308Z,92.54
2023-01-30T03:48:28.359Z,92.23
2023-01-30T03:49:28.396Z,92.33
2023-01-30T03:50:28.415Z,92.44
2023-01-30T03:51:28.445Z,91.88
2023-01-30T03:52:28.485Z,92.33
2023-01-30T03:53:28.536Z,92.54
2023-01-30T03:54:28.596Z,92.33
2023-01-30T03:55:28.619Z,92.54
2023-01-30T03:56:28.618Z,92.44
2023-01-30T03:57:28.617Z,92.64
2023-01-30T03:58:28.624Z,92.23
2023-01-30T03:59:28.664Z,92.02
2023-01-30T04:00:28.769Z,91.98
2023-01-30T04:01:28.802Z,91.61
2023-01-30T04:02:28.830Z,91.77
2023-01-30T04:03:28.802Z,92.23
2023-01-30T04:04:28.869Z,91.82
2023-01-30T04:05:29.034Z,92.23
2023-01-30T04:06:29.011Z,92.54
2023-01-30T04:07:28.993Z,92.23
2023-01-30T04:08:29.057Z,92.44
2023-01-30T04:09:29.017Z,92.54
2023-01-30T04:10:29.088Z,92.40
2023-01-30T04:11:29.118Z,92.44
2023-01-30T04:12:29.149Z,92.64
2023-01-30T04:13:29.170Z,92.40
2023-01-30T04:14:29.180Z,91.77
2023-01-30T04:15:29.222Z,91.98
2023-01-30T04:16:29.304Z,91.77
2023-01-30T04:17:29.281Z,92.08
2023-01-30T04:18:29.349Z,92.50
2023-01-30T04:19:29.360Z,91.98
2023-01-30T04:20:29.429Z,91.77
2023-01-30T04:21:29.422Z,91.42
2023-01-30T04:22:29.496Z,91.42
2023-01-30T04:23:29.625Z,91.11
2023-01-30T04:24:29.601Z,91.11
2023-01-30T04:25:29.633Z,91.56
2023-01-30T04:26:29.727Z,91.88
2023-01-30T04:27:29.677Z,91.73
2023-01-30T04:28:29.695Z,91.56
2023-01-30T04:29:29.744Z,91.83
2023-01-30T04:30:31.167Z,92.19
2023-01-30T04:31:29.985Z,92.40
2023-01-30T04:32:29.919Z,92.19
2023-01-30T04:33:29.936Z,92.19
2023-01-30T04:34:29.974Z,92.91
2023-01-30T04:35:30.015Z,92.80
2023-01-30T04:36:30.052Z,92.04
2023-01-30T04:37:30.097Z,91.83
2023-01-30T04:38:30.147Z,92.19
2023-01-30T04:39:30.205Z,92.70
2023-01-30T04:40:30.254Z,92.70
2023-01-30T04:41:30.246Z,92.25
2023-01-30T04:42:30.242Z,91.63
2023-01-30T04:43:30.263Z,91.94
2023-01-30T04:44:30.307Z,91.79
2023-01-30T04:45:30.500Z,91.79
2023-01-30T04:46:30.378Z,91.28
2023-01-30T04:47:30.468Z,91.42
2023-01-30T04:48:30.477Z,92.70
2023-01-30T04:49:31.386Z,92.97
2023-01-30T04:50:31.458Z,92.46
2023-01-30T04:51:30.433Z,92.86
2023-01-30T04:52:31.319Z,92.46
2023-01-30T04:53:30.522Z,92.55
2023-01-30T04:54:30.488Z,92.66
2023-01-30T04:55:30.557Z,92.35
2023-01-30T04:56:30.542Z,92.51
2023-01-30T04:57:30.660Z,91.94
2023-01-30T04:58:30.669Z,92.41
2023-01-30T04:59:30.699Z,92.86
2023-01-30T05:00:30.742Z,93.28
2023-01-30T05:01:30.718Z,92.66
2023-01-30T05:02:30.742Z,92.21
2023-01-30T05:03:30.790Z,92.55
2023-01-30T05:04:30.839Z,92.66
2023-01-30T05:05:30.860Z,92.46
2023-01-30T05:06:30.931Z,92.41
2023-01-30T05:07:30.929Z,92.41
2023-01-30T05:08:30.976Z,92.31
2023-01-30T05:09:30.991Z,92.61
2023-01-30T05:10:31.022Z,92.16
2023-01-30T05:11:31.042Z,91.44
2023-01-30T05:12:31.053Z,91.44
2023-01-30T05:13:31.071Z,92.10
2023-01-30T05:14:31.094Z,91.81
2023-01-30T05:15:31.068Z,91.03
2023-01-30T05:16:31.040Z,91.60
2023-01-30T05:17:31.134Z,91.03
2023-01-30T05:18:31.133Z,91.75
2023-01-30T05:19:31.124Z,92.27
2023-01-30T05:20:31.172Z,92.10
2023-01-30T05:21:31.126Z,92.93
2023-01-30T05:22:31.188Z,92.72
2023-01-30T05:23:31.228Z,93.03
2023-01-30T05:24:31.219Z,93.03
2023-01-30T05:25:32.360Z,92.78
2023-01-30T05:26:31.333Z,92.57
2023-01-30T05:27:31.357Z,92.57
2023-01-30T05:28:31.448Z,92.53
2023-01-30T05:29:31.448Z,91.66
2023-01-30T05:30:31.494Z,91.50
2023-01-30T05:31:31.515Z,91.91
2023-01-30T05:32:31.526Z,91.64
2023-01-30T05:33:31.629Z,92.37
2023-01-30T05:34:31.592Z,92.43
2023-01-30T05:35:31.657Z,92.22
2023-01-30T05:36:31.728Z,92.57
2023-01-30T05:37:31.755Z,92.27
2023-01-30T05:38:31.827Z,92.53
2023-01-30T05:39:31.910Z,92.27
2023-01-30T05:40:31.847Z,92.57
2023-01-30T05:41:31.927Z,92.33
2023-01-30T05:42:31.915Z,92.74
2023-01-30T05:43:31.919Z,92.29
2023-01-30T05:44:31.974Z,91.91
2023-01-30T05:45:32.655Z,91.91
2023-01-30T05:46:32.878Z,92.33
2023-01-30T05:47:32.573Z,92.22
2023-01-30T05:48:32.038Z,91.77
2023-01-30T05:49:32.000Z,92.02
2023-01-30T05:50:32.051Z,92.22
2023-01-30T05:51:32.120Z,92.43
2023-01-30T05:52:32.087Z,92.49
2023-01-30T05:53:32.104Z,91.77
2023-01-30T05:54:32.159Z,91.36
2023-01-30T05:55:32.231Z,91.66
2023-01-30T05:56:32.242Z,91.05
2023-01-30T05:57:32.321Z,91.25
2023-01-30T05:58:32.369Z,90.73
2023-01-30T05:59:32.391Z,91.56
2023-01-30T06:00:32.421Z,91.87
2023-01-30T06:01:32.422Z,91.25
2023-01-30T06:02:32.512Z,91.46
2023-01-30T06:03:32.602Z,91.56
2023-01-30T06:04:32.522Z,91.91
2023-01-30T06:05:32.555Z,92.18
2023-01-30T06:06:32.583Z,90.94
2023-01-30T06:07:32.614Z,90.88
2023-01-30T06:08:32.657Z,91.25
2023-01-30T06:09:32.704Z,91.05
2023-01-30T06:10:32.745Z,90.73
2023-01-30T06:11:32.842Z,90.78
2023-01-30T06:12:32.855Z,90.78
2023-01-30T06:13:32.887Z,90.43
2023-01-30T06:14:32.864Z,90.22
2023-01-30T06:15:32.901Z,90.01
2023-01-30T06:16:33.063Z,90.53
2023-01-30T06:17:32.979Z,90.53
2023-01-30T06:18:33.028Z,90.73
2023-01-30T06:19:33.036Z,90.73
2023-01-30T06:20:33.066Z,91.05
2023-01-30T06:21:33.128Z,90.80
2023-01-30T06:22:33.126Z,89.73
2023-01-30T06:23:33.148Z,89.07
2023-01-30T06:24:33.151Z,88.64
2023-01-30T06:25:33.185Z,89.87
2023-01-30T06:26:33.261Z,89.97
2023-01-30T06:27:33.261Z,89.52
2023-01-30T06:28:33.289Z,89.25
2023-01-30T06:29:33.278Z,89.77
2023-01-30T06:30:33.372Z,89.87
2023-01-30T06:31:33.459Z,89.87
2023-01-30T06:32:33.457Z,89.97
2023-01-30T06:33:33.644Z,89.77
2023-01-30T06:34:34.189Z,89.67
2023-01-30T06:35:34.501Z,89.56
2023-01-30T06:36:33.560Z,89.01
2023-01-30T06:37:34.501Z,88.39
2023-01-30T06:38:33.600Z,88.39
2023-01-30T06:39:33.600Z,88.29
2023-01-30T06:40:33.604Z,88.90
2023-01-30T06:41:33.614Z,88.80
2023-01-30T06:42:33.607Z,88.86
2023-01-30T06:43:33.592Z,88.45
2023-01-30T06:44:33.670Z,87.73
2023-01-30T06:45:33.691Z,87.84
2023-01-30T06:46:33.737Z,88.43
2023-01-30T06:47:33.763Z,89.25
2023-01-30T06:48:33.836Z,89.07
2023-01-30T06:49:33.875Z,87.63
2023-01-30T06:50:33.883Z,87.98
2023-01-30T06:51:33.945Z,88.29
2023-01-30T06:52:33.963Z,88.23
2023-01-30T06:53:33.993Z,88.43
2023-01-30T06:54:33.962Z,88.64
2023-01-30T06:55:34.034Z,88.33
2023-01-30T06:56:34.063Z,88.29
2023-01-30T06:57:34.088Z,87.42
2023-01-30T06:58:34.086Z,86.85
2023-01-30T06:59:34.134Z,87.81
2023-01-30T07:00:34.135Z,88.39
2023-01-30T07:01:34.180Z,87.87
2023-01-30T07:02:34.166Z,87.67
2023-01-30T07:03:34.218Z,88.08
2023-01-30T07:04:34.272Z,88.74
2023-01-30T07:05:34.254Z,88.04
2023-01-30T07:06:34.307Z,88.02
2023-01-30T07:07:34.384Z,88.64
2023-01-30T07:08:34.435Z,88.80
2023-01-30T07:09:34.475Z,87.84
2023-01-30T07:10:34.507Z,87.67
2023-01-30T07:11:34.556Z,87.77
2023-01-30T07:12:34.562Z,88.18
2023-01-30T07:13:35.430Z,88.59
2023-01-30T07:14:34.575Z,88.14
2023-01-30T07:15:34.627Z,87.22
2023-01-30T07:16:34.636Z,87.84
2023-01-30T07:17:34.710Z,87.46
2023-01-30T07:18:34.709Z,87.84
2023-01-30T07:19:34.750Z,87.22
2023-01-30T07:20:34.755Z,86.77
2023-01-30T07:21:34.915Z,86.91
2023-01-30T07:22:34.860Z,87.26
2023-01-30T07:23:35.835Z,87.36
2023-01-30T07:24:35.058Z,86.70
2023-01-30T07:25:35.818Z,86.80
2023-01-30T07:26:35.086Z,86.50
2023-01-30T07:27:35.100Z,86.19
2023-01-30T07:28:35.113Z,86.15
2023-01-30T07:29:35.184Z,86.40
2023-01-30T07:30:35.303Z,86.13
2023-01-30T07:31:35.341Z,86.60
2023-01-30T07:32:35.553Z,86.40
2023-01-30T07:33:35.340Z,86.29
2023-01-30T07:34:36.043Z,85.94
2023-01-30T07:35:35.497Z,85.92
2023-01-30T07:36:35.375Z,86.02
2023-01-30T07:37:36.502Z,85.92
2023-01-30T07:38:35.443Z,84.00
2023-01-30T07:39:35.452Z,83.97
2023-01-30T07:40:35.471Z,83.25
2023-01-30T07:41:35.542Z,83.55
2023-01-30T07:42:36.153Z,83.04
2023-01-30T07:43:36.556Z,83.14
2023-01-30T07:44:35.781Z,82.63
2023-01-30T07:45:35.657Z,82.73
2023-01-30T07:46:36.401Z,82.32
2023-01-30T07:47:36.654Z,82.32
2023-01-30T07:48:36.467Z,81.49
2023-01-30T07:49:35.766Z,81.39
2023-01-30T07:50:35.947Z,81.49
2023-01-30T07:51:35.854Z,81.67
2023-01-30T07:52:35.836Z,80.98
2023-01-30T07:53:35.916Z,80.98
2023-01-30T07:54:35.966Z,80.98
2023-01-30T07:55:35.985Z,80.33
2023-01-30T07:56:36.738Z,80.08
2023-01-30T07:57:35.989Z,79.88
2023-01-30T07:58:36.209Z,79.67
2023-01-30T07:59:36.088Z,79.75
2023-01-30T08:00:36.088Z,80.33
2023-01-30T08:01:36.080Z,80.57
2023-01-30T08:02:36.099Z,80.57
2023-01-30T08:03:36.129Z,81.02
2023-01-30T08:04:36.203Z,80.77
2023-01-30T08:05:36.272Z,80.05
2023-01-30T08:06:37.001Z,80.12
2023-01-30T08:07:36.311Z,79.71
2023-01-30T08:08:36.404Z,79.71
2023-01-30T08:09:36.429Z,80.22
2023-01-30T08:10:36.544Z,80.08
2023-01-30T08:11:36.521Z,79.36
2023-01-30T08:12:36.515Z,79.19
2023-01-30T08:13:36.470Z,79.09
2023-01-30T08:14:36.529Z,79.19
2023-01-30T08:15:36.725Z,78.96
2023-01-30T08:16:37.493Z,78.68
2023-01-30T08:17:36.531Z,78.61
2023-01-30T08:18:36.582Z,78.10
2023-01-30T08:19:36.663Z,77.48
2023-01-30T08:20:36.607Z,77.48
2023-01-30T08:21:37.300Z,77.75
2023-01-30T08:22:36.679Z,77.65
2023-01-30T08:23:36.756Z,77.92
2023-01-30T08:24:37.696Z,77.62
2023-01-30T08:25:37.432Z,77.72
2023-01-30T08:26:36.979Z,77.75
2023-01-30T08:27:36.996Z,78.27
2023-01-30T08:28:37.726Z,78.37
2023-01-30T08:29:36.896Z,78.47
2023-01-30T08:30:36.974Z,78.27
2023-01-30T08:31:36.953Z,78.58
2023-01-30T08:32:36.979Z,77.86
2023-01-30T08:33:37.034Z,78.06
2023-01-30T08:34:37.085Z,78.00
2023-01-30T08:35:37.045Z,78.17
2023-01-30T08:36:37.105Z,77.86
2023-01-30T08:37:37.108Z,77.86
2023-01-30T08:38:37.129Z,77.55
2023-01-30T08:39:37.389Z,78.17
2023-01-30T08:40:37.249Z,78.13
2023-01-30T08:41:37.326Z,77.92
2023-01-30T08:42:37.313Z,77.31
2023-01-30T08:43:37.319Z,77.58
2023-01-30T08:44:37.338Z,78.10
2023-01-30T08:45:37.352Z,78.51
2023-01-30T08:46:37.444Z,77.86
2023-01-30T08:47:37.349Z,77.75
2023-01-30T08:48:49.151Z,77.65
2023-01-30T08:49:37.387Z,77.86
2023-01-30T08:50:37.439Z,77.31
2023-01-30T08:51:37.449Z,77.45
2023-01-30T08:52:37.510Z,77.55
2023-01-30T08:53:37.558Z,77.55
2023-01-30T08:54:37.541Z,77.96
2023-01-30T08:55:37.606Z,77.75
2023-01-30T08:56:37.641Z,78.27
2023-01-30T08:57:38.351Z,78.17
2023-01-30T08:58:37.729Z,78.27
2023-01-30T08:59:37.782Z,77.96
2023-01-30T09:00:37.827Z,77.65
2023-01-30T09:01:37.943Z,77.55
2023-01-30T09:02:37.924Z,77.62
2023-01-30T09:03:37.903Z,77.10
2023-01-30T09:04:37.926Z,77.03
2023-01-30T09:05:37.964Z,77.24
2023-01-30T09:06:37.975Z,77.00
2023-01-30T09:07:37.932Z,76.79
2023-01-30T09:08:37.966Z,76.90
2023-01-30T09:09:37.944Z,77.14
2023-01-30T09:10:37.946Z,77.07
2023-01-30T09:11:37.976Z,76.86
2023-01-30T09:12:37.996Z,76.73
2023-01-30T09:13:38.087Z,76.76
2023-01-30T09:14:38.086Z,76.97
2023-01-30T09:15:38.084Z,76.11
2023-01-30T09:16:38.155Z,75.84
2023-01-30T09:17:38.129Z,76.11
2023-01-30T09:18:38.135Z,75.18
2023-01-30T09:19:38.164Z,75.42
2023-01-30T09:20:38.175Z,75.70
2023-01-30T09:21:38.187Z,74.95
2023-01-30T09:22:38.241Z,74.67
2023-01-30T09:23:38.286Z,74.36
2023-01-30T09:24:38.371Z,74.84
2023-01-30T09:25:38.385Z,74.74
2023-01-30T09:26:38.394Z,74.43
2023-01-30T09:27:38.380Z,74.15
2023-01-30T09:28:38.479Z,74.26
2023-01-30T09:29:38.497Z,74.36
2023-01-30T09:30:38.610Z,73.95
2023-01-30T09:31:38.646Z,74.36
2023-01-30T09:32:38.552Z,73.81
2023-01-30T09:33:38.619Z,73.61
2023-01-30T09:34:38.628Z,73.61
2023-01-30T09:35:38.690Z,73.54
2023-01-30T09:36:38.700Z,73.50
2023-01-30T09:37:38.698Z,73.64
2023-01-30T09:38:38.682Z,72.85
2023-01-30T09:39:38.734Z,73.44
2023-01-30T09:40:38.810Z,72.68
2023-01-30T09:41:38.818Z,73.27
2023-01-30T09:42:38.813Z,73.27
2023-01-30T09:43:38.850Z,73.47
2023-01-30T09:44:38.899Z,73.06
2023-01-30T09:45:38.958Z,73.61
2023-01-30T09:46:38.991Z,74.22
2023-01-30T09:47:39.032Z,73.91
2023-01-30T09:48:40.557Z,74.12
2023-01-30T09:49:39.116Z,74.02
2023-01-30T09:50:39.139Z,73.98
2023-01-30T09:51:39.162Z,73.50
2023-01-30T09:52:39.184Z,72.78
2023-01-30T09:53:39.192Z,74.43
2023-01-30T09:54:39.207Z,74.95
2023-01-30T09:55:39.195Z,74.12
2023-01-30T09:56:39.215Z,74.29
2023-01-30T09:57:39.222Z,74.19
2023-01-30T09:58:39.274Z,74.50
2023-01-30T09:59:39.315Z,74.26
2023-01-30T10:00:39.343Z,74.84
2023-01-30T10:01:39.394Z,74.95
2023-01-30T10:02:39.429Z,74.84
2023-01-30T10:03:39.480Z,74.29
2023-01-30T10:04:41.949Z,73.71
2023-01-30T10:05:39.517Z,74.22
2023-01-30T10:06:39.577Z,73.91
2023-01-30T10:07:39.631Z,73.91
2023-01-30T10:08:39.675Z,74.02
2023-01-30T10:09:39.726Z,73.95
2023-01-30T10:10:39.786Z,73.57
2023-01-30T10:11:39.866Z,73.16
2023-01-30T10:12:39.914Z,72.92
2023-01-30T10:13:39.940Z,73.40
2023-01-30T10:14:39.951Z,73.50
2023-01-30T10:15:39.958Z,73.19
2023-01-30T10:16:39.937Z,74.19
2023-01-30T10:17:39.986Z,73.57
2023-01-30T10:18:40.080Z,72.82
2023-01-30T10:19:40.037Z,73.36
2023-01-30T10:20:40.076Z,73.47
2023-01-30T10:21:40.138Z,73.30
2023-01-30T10:22:40.140Z,73.61
2023-01-30T10:23:40.159Z,73.36
2023-01-30T10:24:40.149Z,73.23
2023-01-30T10:25:40.168Z,72.92
2023-01-30T10:26:40.324Z,72.72
2023-01-30T10:27:40.300Z,73.16
2023-01-30T10:28:40.367Z,73.61
2023-01-30T10:29:40.438Z,73.02
2023-01-30T10:30:40.484Z,72.82
2023-01-30T10:31:40.464Z,73.27
2023-01-30T10:32:40.470Z,73.68
2023-01-30T10:33:40.556Z,73.36
2023-01-30T10:34:40.546Z,73.50
2023-01-30T10:35:40.540Z,74.12
2023-01-30T10:36:40.572Z,74.02
2023-01-30T10:37:40.591Z,73.81
2023-01-30T10:38:40.655Z,73.61
2023-01-30T10:39:49.626Z,73.57
2023-01-30T10:40:40.702Z,73.81
2023-01-30T10:41:40.803Z,73.64
2023-01-30T10:42:40.816Z,74.33
2023-01-30T10:43:40.873Z,73.71
2023-01-30T10:44:40.925Z,73.91
2023-01-30T10:45:40.995Z,73.36
2023-01-30T10:46:41.017Z,74.12
2023-01-30T10:47:47.067Z,73.78
2023-01-30T10:48:44.135Z,74.12
2023-01-30T10:49:41.123Z,74.33
2023-01-30T10:50:41.104Z,74.46
2023-01-30T10:51:41.150Z,74.77
2023-01-30T10:52:41.165Z,75.67
2023-01-30T10:53:41.219Z,76.86
2023-01-30T10:54:41.272Z,78.30
2023-01-30T10:55:41.227Z,78.61
2023-01-30T10:56:41.235Z,79.33
2023-01-30T10:57:41.235Z,79.44
2023-01-30T10:58:41.258Z,78.92
2023-01-30T10:59:41.269Z,79.13
2023-01-30T11:00:41.265Z,78.51
2023-01-30T11:01:41.358Z,79.33
2023-01-30T11:02:41.471Z,80.33
2023-01-30T11:03:41.333Z,80.81
2023-01-30T11:04:41.370Z,81.33
2023-01-30T11:05:41.397Z,81.37
2023-01-30T11:06:41.398Z,83.15
2023-01-30T11:07:41.488Z,82.95
2023-01-30T11:08:41.458Z,83.47
2023-01-30T11:09:41.539Z,82.74
2023-01-30T11:10:41.587Z,82.40
2023-01-30T11:11:41.640Z,82.46
2023-01-30T11:12:41.730Z,82.15
2023-01-30T11:13:41.698Z,81.74
2023-01-30T11:14:42.016Z,81.81
2023-01-30T11:15:41.771Z,80.40
2023-01-30T11:16:41.820Z,81.19
2023-01-30T11:17:41.912Z,80.19
2023-01-30T11:19:18.098Z,80.16
2023-01-30T11:19:42.334Z,79.40
2023-01-30T11:20:41.925Z,79.05
2023-01-30T11:21:44.399Z,77.51
2023-01-30T11:22:42.002Z,77.51
2023-01-30T11:23:42.041Z,76.79
2023-01-30T11:24:42.123Z,76.97
2023-01-30T11:25:42.161Z,75.15
2023-01-30T11:26:47.768Z,75.42
2023-01-30T11:27:42.236Z,74.84
2023-01-30T11:28:42.274Z,75.42
2023-01-30T11:29:42.334Z,75.35
2023-01-30T11:30:42.398Z,75.42
2023-01-30T11:31:42.554Z,75.73
2023-01-30T11:32:42.544Z,74.91
2023-01-30T11:33:42.592Z,74.22
2023-01-30T11:34:42.599Z,74.63
2023-01-30T11:35:42.595Z,73.64
2023-01-30T11:36:42.576Z,73.13
2023-01-30T11:37:42.647Z,72.89
2023-01-30T11:38:42.625Z,72.20
2023-01-30T11:39:42.705Z,73.44
2023-01-30T11:40:42.758Z,73.54
2023-01-30T11:41:42.776Z,73.13
2023-01-30T11:42:42.848Z,73.16
2023-01-30T11:43:42.910Z,73.47
2023-01-30T11:44:42.932Z,72.41
2023-01-30T11:45:42.959Z,72.96
2023-01-30T11:46:42.968Z,73.47
2023-01-30T11:47:45.290Z,73.36
2023-01-30T11:49:14.512Z,73.40
2023-01-30T11:49:48.589Z,74.22
2023-01-30T11:50:45.060Z,73.50
2023-01-30T11:51:43.128Z,74.22
2023-01-30T11:52:43.161Z,73.47
2023-01-30T11:53:43.168Z,72.85
2023-01-30T11:54:43.183Z,73.61
2023-01-30T11:55:49.955Z,73.81
2023-01-30T11:56:43.244Z,73.78
2023-01-30T11:57:43.270Z,73.88
2023-01-30T11:58:43.321Z,73.30
2023-01-30T11:59:43.311Z,73.57
2023-01-30T12:00:43.322Z,74.22
2023-01-30T12:01:43.422Z,73.91
2023-01-30T12:02:43.614Z,74.53
2023-01-30T12:03:43.471Z,74.57
2023-01-30T12:04:43.520Z,74.46
2023-01-30T12:05:43.542Z,74.84
2023-01-30T12:06:43.552Z,73.68
2023-01-30T12:07:43.585Z,73.71
2023-01-30T12:08:43.660Z,74.02
2023-01-30T12:09:43.652Z,73.71
2023-01-30T12:10:43.650Z,73.50
2023-01-30T12:11:43.659Z,73.09
2023-01-30T12:12:43.666Z,73.47
2023-01-30T12:13:43.745Z,72.89
2023-01-30T12:14:45.122Z,73.16
2023-01-30T12:15:43.734Z,72.61
2023-01-30T12:16:43.742Z,71.89
2023-01-30T12:17:43.781Z,71.04
2023-01-30T12:18:43.725Z,70.94
2023-01-30T12:19:43.786Z,70.90
2023-01-30T12:20:43.821Z,69.98
2023-01-30T12:21:43.868Z,69.78
2023-01-30T12:22:43.926Z,69.26
2023-01-30T12:23:43.979Z,69.19
2023-01-30T12:24:44.051Z,69.02
2023-01-30T12:25:44.102Z,70.32
2023-01-30T12:26:44.148Z,69.94
2023-01-30T12:27:44.159Z,69.74
2023-01-30T12:28:44.158Z,70.25
2023-01-30T12:29:44.169Z,69.26
2023-01-30T12:30:44.200Z,70.66
2023-01-30T12:31:44.250Z,70.22
2023-01-30T12:32:44.295Z,69.12
2023-01-30T12:33:44.300Z,70.15
2023-01-30T12:34:44.328Z,70.70
2023-01-30T12:35:44.568Z,71.51
2023-01-30T12:36:44.358Z,73.64
2023-01-30T12:37:44.388Z,77.11
2023-01-30T12:38:44.411Z,78.58
2023-01-30T12:39:46.771Z,80.99
2023-01-30T12:40:46.765Z,82.33
2023-01-30T12:41:44.521Z,83.19
2023-01-30T12:42:44.551Z,84.33
2023-01-30T12:43:44.608Z,84.84
2023-01-30T12:44:44.678Z,84.84
2023-01-30T12:45:44.739Z,85.19
2023-01-30T12:46:45.606Z,85.50
2023-01-30T12:47:44.771Z,85.81
2023-01-30T12:49:44.772Z,85.75
2023-01-30T12:50:44.811Z,87.34
2023-01-30T12:51:44.870Z,87.44
2023-01-30T12:52:44.863Z,87.58
2023-01-30T12:53:44.921Z,87.79